createdAt,value
2022-08-19T00:02:25.035Z,22.87
2022-08-19T00:07:29.479Z,22.91
2022-08-19T00:12:34.760Z,22.80
2022-08-19T00:17:45.850Z,22.76
2022-08-19T00:22:50.339Z,22.78
2022-08-19T00:27:54.520Z,22.79
2022-08-19T00:33:01.048Z,22.77
2022-08-19T00:38:07.912Z,22.65
2022-08-19T00:43:14.667Z,22.48
2022-08-19T00:48:21.565Z,22.45
2022-08-19T00:53:32.492Z,22.48
2022-08-19T00:58:37.650Z,22.52
2022-08-19T01:03:56.854Z,22.53
2022-08-19T01:09:05.200Z,22.50
2022-08-19T01:14:11.041Z,22.41
2022-08-19T01:19:43.598Z,22.28
2022-08-19T01:24:50.021Z,22.18
2022-08-19T01:29:54.558Z,22.14
2022-08-19T01:34:59.108Z,22.11
2022-08-19T01:40:09.523Z,22.04
2022-08-19T01:45:13.728Z,21.95
2022-08-19T01:50:18.711Z,21.88
2022-08-19T01:55:25.641Z,21.81
2022-08-19T02:00:33.716Z,21.79
2022-08-19T02:05:38.275Z,21.74
2022-08-19T02:10:45.378Z,21.71
2022-08-19T02:15:49.797Z,21.69
2022-08-19T02:20:54.650Z,21.65
2022-08-19T02:25:59.180Z,21.56
2022-08-19T02:31:04.619Z,21.52
2022-08-19T02:36:10.846Z,21.54
2022-08-19T02:41:20.223Z,21.57
2022-08-19T02:46:30.268Z,21.53
2022-08-19T02:51:42.564Z,21.44
2022-08-19T02:56:48.011Z,21.37
2022-08-19T03:01:52.400Z,21.39
2022-08-19T03:07:00.769Z,21.40
2022-08-19T03:12:08.015Z,21.40
2022-08-19T03:17:12.585Z,21.36
2022-08-19T03:22:16.828Z,21.29
2022-08-19T03:27:21.581Z,21.26
2022-08-19T03:32:32.432Z,21.26
2022-08-19T03:37:46.426Z,21.29
2022-08-19T03:42:51.414Z,21.31
2022-08-19T03:47:56.796Z,21.32
2022-08-19T03:53:02.194Z,21.30
2022-08-19T03:58:06.141Z,21.32
2022-08-19T04:03:10.992Z,21.38
2022-08-19T04:08:21.890Z,21.38
2022-08-19T04:13:26.338Z,21.41
2022-08-19T04:18:36.517Z,21.55
2022-08-19T04:23:45.479Z,21.68
2022-08-19T04:28:52.924Z,21.81
2022-08-19T04:34:03.624Z,21.88
2022-08-19T04:39:14.373Z,21.97
2022-08-19T04:44:19.574Z,22.08
2022-08-19T04:49:25.140Z,22.19
2022-08-19T04:54:38.401Z,22.34
2022-08-19T04:59:43.468Z,22.55
2022-08-19T05:04:47.600Z,22.76
2022-08-19T05:09:56.758Z,22.93
2022-08-19T05:15:07.083Z,23.10
2022-08-19T05:20:30.604Z,23.25
2022-08-19T05:25:34.943Z,23.46
2022-08-19T05:30:47.179Z,23.75
2022-08-19T05:35:52.168Z,23.95
2022-08-19T05:40:56.973Z,24.05
2022-08-19T05:46:01.520Z,24.16
2022-08-19T05:51:07.952Z,24.40
2022-08-19T05:56:17.505Z,24.54
2022-08-19T06:01:22.334Z,24.68
2022-08-19T06:06:26.656Z,24.79
2022-08-19T06:11:45.084Z,24.84
2022-08-19T06:16:49.375Z,24.95
2022-08-19T06:21:54.811Z,25.21
2022-08-19T06:27:01.829Z,25.54
2022-08-19T06:32:07.120Z,25.85
2022-08-19T06:37:12.975Z,26.16
2022-08-19T06:42:21.718Z,26.41
2022-08-19T06:47:28.877Z,26.73
2022-08-19T06:52:38.475Z,27.07
2022-08-19T06:57:43.846Z,27.29
2022-08-19T07:02:53.266Z,27.47
2022-08-19T07:08:04.852Z,27.60
2022-08-19T07:13:09.856Z,27.85
2022-08-19T07:18:14.509Z,28.17
2022-08-19T07:23:18.693Z,28.58
2022-08-19T07:28:25.028Z,28.96
2022-08-19T07:33:34.187Z,29.23
2022-08-19T07:38:40.699Z,29.34
2022-08-19T07:43:45.125Z,29.30
2022-08-19T07:48:53.039Z,29.50
2022-08-19T07:53:57.585Z,29.47
2022-08-19T07:59:02.232Z,29.49
2022-08-19T08:04:24.807Z,29.61
2022-08-19T08:09:39.349Z,29.69
2022-08-19T08:14:49.182Z,29.91
2022-08-19T08:20:01.206Z,29.94
2022-08-19T08:25:13.535Z,30.02
2022-08-19T08:30:26.820Z,30.25
2022-08-19T08:35:37.503Z,30.43
2022-08-19T08:40:51.347Z,30.59
2022-08-19T08:46:04.605Z,30.80
2022-08-19T08:51:47.242Z,31.08
2022-08-19T08:56:56.572Z,31.50
2022-08-19T09:02:01.919Z,31.49
2022-08-19T09:07:18.721Z,31.21
2022-08-19T09:12:55.745Z,31.20
2022-08-19T09:18:07.166Z,31.68
2022-08-19T09:23:12.545Z,31.67
2022-08-19T09:28:22.686Z,31.85
2022-08-19T09:33:32.677Z,31.98
2022-08-19T09:38:44.874Z,32.05
2022-08-19T09:43:57.609Z,31.99
2022-08-19T09:49:06.145Z,32.07
2022-08-19T09:54:11.732Z,32.36
2022-08-19T09:59:16.349Z,32.77
2022-08-19T10:04:22.580Z,33.06
2022-08-19T10:09:34.281Z,33.11
2022-08-19T10:14:40.625Z,33.31
2022-08-19T10:19:53.841Z,33.33
2022-08-19T10:25:00.691Z,32.99
2022-08-19T10:30:10.062Z,33.17
2022-08-19T10:35:16.232Z,33.42
2022-08-19T10:40:28.960Z,33.69
2022-08-19T10:45:33.088Z,33.57
2022-08-19T10:50:57.376Z,33.45
2022-08-19T10:56:20.241Z,33.46
2022-08-19T11:01:24.526Z,33.34
2022-08-19T11:06:29.540Z,33.25
2022-08-19T11:11:34.499Z,33.26
2022-08-19T11:16:44.772Z,33.25
2022-08-19T11:21:50.911Z,33.28
2022-08-19T11:27:04.026Z,33.22
2022-08-19T11:32:12.317Z,33.22
2022-08-19T11:37:17.381Z,33.40
2022-08-19T11:42:39.942Z,33.54
2022-08-19T11:47:45.811Z,33.51
2022-08-19T11:52:51.507Z,33.49
2022-08-19T11:57:55.846Z,33.54
2022-08-19T12:03:00.371Z,33.53
2022-08-19T12:08:05.054Z,33.39
2022-08-19T12:13:09.873Z,33.25
2022-08-19T12:18:15.545Z,33.17
2022-08-19T12:23:20.706Z,33.02
2022-08-19T12:28:28.142Z,32.98
2022-08-19T12:33:36.523Z,33.09
2022-08-19T12:38:45.447Z,33.30
2022-08-19T12:43:51.291Z,33.31
2022-08-19T12:48:56.165Z,33.13
2022-08-19T12:54:01.547Z,33.28
2022-08-19T12:59:06.749Z,33.41
2022-08-19T13:04:11.652Z,33.79
2022-08-19T13:09:15.941Z,34.00
2022-08-19T13:14:20.521Z,34.00
2022-08-19T13:19:26.039Z,33.89
2022-08-19T13:24:31.379Z,33.69
2022-08-19T13:30:03.591Z,33.51
2022-08-19T13:35:08.456Z,33.35
2022-08-19T13:40:30.056Z,33.25
2022-08-19T13:45:35.591Z,33.52
2022-08-19T13:50:52.515Z,33.66
2022-08-19T13:55:56.922Z,33.54
2022-08-19T14:01:02.297Z,33.25
2022-08-19T14:06:07.108Z,33.07
2022-08-19T14:11:11.709Z,32.99
2022-08-19T14:16:16.639Z,32.95
2022-08-19T14:21:25.988Z,32.97
2022-08-19T14:26:30.129Z,33.00
2022-08-19T14:31:37.876Z,32.87
2022-08-19T14:36:43.733Z,32.79
2022-08-19T14:41:48.176Z,32.72
2022-08-19T14:46:52.302Z,32.70
2022-08-19T14:51:59.235Z,32.79
2022-08-19T14:57:04.357Z,32.97
2022-08-19T15:02:34.230Z,33.36
2022-08-19T15:07:37.360Z,34.12
2022-08-19T15:12:46.633Z,34.41
2022-08-19T15:17:54.068Z,34.60
2022-08-19T15:23:00.178Z,34.91
2022-08-19T15:28:05.056Z,35.05
2022-08-19T15:33:09.482Z,35.07
2022-08-19T15:38:14.844Z,35.04
2022-08-19T15:43:24.272Z,34.90
2022-08-19T15:48:57.266Z,34.58
2022-08-19T15:54:08.908Z,34.31
2022-08-19T15:59:31.940Z,34.35
2022-08-19T16:04:55.518Z,34.47
2022-08-19T16:10:00.143Z,34.41
2022-08-19T16:15:29.242Z,34.29
2022-08-19T16:20:35.660Z,34.01
2022-08-19T16:25:40.108Z,33.46
2022-08-19T16:30:48.482Z,33.32
2022-08-19T16:36:00.408Z,33.24
2022-08-19T16:41:14.917Z,33.08
2022-08-19T16:46:21.007Z,32.96
2022-08-19T16:51:26.771Z,32.76
2022-08-19T16:56:32.035Z,32.39
2022-08-19T17:01:36.415Z,32.13
2022-08-19T17:06:40.819Z,31.87
2022-08-19T17:11:48.931Z,31.57
2022-08-19T17:16:55.639Z,31.30
2022-08-19T17:21:59.569Z,31.05
2022-08-19T17:27:08.639Z,30.83
2022-08-19T17:32:14.361Z,30.68
2022-08-19T17:37:18.832Z,30.50
2022-08-19T17:42:23.582Z,30.29
2022-08-19T17:47:29.637Z,30.11
2022-08-19T17:52:34.556Z,29.91
2022-08-19T17:57:46.502Z,29.79
2022-08-19T18:03:01.738Z,29.65
2022-08-19T18:08:11.866Z,29.49
2022-08-19T18:13:17.590Z,29.31
2022-08-19T18:18:22.731Z,29.15
2022-08-19T18:23:43.910Z,29.04
2022-08-19T18:28:52.288Z,28.95
2022-08-19T18:33:56.849Z,28.86
2022-08-19T18:39:19.835Z,28.75
2022-08-19T18:44:44.239Z,28.65
2022-08-19T18:49:51.205Z,28.59
2022-08-19T18:54:55.843Z,28.56
2022-08-19T19:00:00.295Z,28.56
2022-08-19T19:05:07.398Z,28.50
2022-08-19T19:10:12.143Z,28.43
2022-08-19T19:15:16.685Z,28.28
2022-08-19T19:20:21.163Z,28.11
2022-08-19T19:25:26.200Z,27.92
2022-08-19T19:30:50.606Z,27.76
2022-08-19T19:35:54.946Z,27.62
2022-08-19T19:40:59.312Z,27.53
2022-08-19T19:46:03.668Z,27.46
2022-08-19T19:51:11.837Z,27.44
2022-08-19T19:56:17.012Z,27.42
2022-08-19T20:01:26.944Z,27.41
2022-08-19T20:06:31.655Z,27.38
2022-08-19T20:11:54.698Z,27.35
2022-08-19T20:17:00.485Z,27.31
2022-08-19T20:22:07.279Z,27.28
2022-08-19T20:27:12.008Z,27.28
2022-08-19T20:32:16.252Z,27.28
2022-08-19T20:37:20.379Z,27.27
2022-08-19T20:42:24.848Z,27.25
2022-08-19T20:47:30.393Z,27.18
2022-08-19T20:52:36.300Z,27.12
2022-08-19T20:57:40.613Z,27.11
2022-08-19T21:02:47.914Z,27.06
2022-08-19T21:07:52.085Z,27.02
2022-08-19T21:12:56.496Z,27.00
2022-08-19T21:18:00.838Z,26.99
2022-08-19T21:23:12.260Z,27.00
2022-08-19T21:28:34.314Z,26.99
2022-08-19T21:33:41.782Z,26.98
2022-08-19T21:38:46.241Z,26.97
2022-08-19T21:43:50.380Z,26.96
2022-08-19T21:48:54.599Z,26.92
2022-08-19T21:53:59.268Z,26.86
2022-08-19T21:59:04.117Z,26.84
2022-08-19T22:04:08.253Z,26.81
2022-08-19T22:09:12.699Z,26.78
2022-08-19T22:14:17.049Z,26.77
2022-08-19T22:19:21.166Z,26.75
2022-08-19T22:24:32.497Z,26.72
2022-08-19T22:29:37.459Z,26.69
2022-08-19T22:34:42.298Z,26.66
2022-08-19T22:39:46.658Z,26.60
2022-08-19T22:44:51.084Z,26.56
2022-08-19T22:49:55.512Z,26.47
2022-08-19T22:55:07.658Z,26.40
2022-08-19T23:00:13.905Z,26.35
2022-08-19T23:05:22.034Z,26.30
2022-08-19T23:10:29.510Z,26.25
2022-08-19T23:15:34.643Z,26.21
2022-08-19T23:20:42.534Z,26.09
2022-08-19T23:25:49.327Z,25.97
2022-08-19T23:30:55.148Z,25.85
2022-08-19T23:36:13.058Z,25.72
2022-08-19T23:41:19.537Z,25.54
2022-08-19T23:46:28.384Z,25.36
2022-08-19T23:51:32.825Z,25.24
2022-08-19T23:56:37.207Z,25.00
